createdAt,value
2022-08-17T00:00:42.746Z,21.57
2022-08-17T00:03:15.393Z,21.48
2022-08-17T00:05:49.444Z,21.46
2022-08-17T00:08:22.578Z,21.41
2022-08-17T00:10:52.580Z,21.32
2022-08-17T00:13:25.268Z,21.39
2022-08-17T00:15:55.621Z,21.37
2022-08-17T00:19:06.512Z,21.41
2022-08-17T00:21:16.143Z,21.47
2022-08-17T00:23:52.596Z,21.41
2022-08-17T00:26:43.671Z,21.41
2022-08-17T00:29:10.841Z,21.41
2022-08-17T00:31:47.944Z,21.33
2022-08-17T00:34:17.577Z,21.32
2022-08-17T00:36:45.631Z,21.25
2022-08-17T00:39:13.740Z,21.29
2022-08-17T00:41:42.370Z,21.24
2022-08-17T00:44:12.041Z,21.27
2022-08-17T00:46:43.917Z,21.22
2022-08-17T00:49:15.922Z,21.16
2022-08-17T00:51:50.874Z,21.13
2022-08-17T00:54:28.030Z,21.08
2022-08-17T00:56:59.813Z,21.06
2022-08-17T00:59:32.912Z,21.17
2022-08-17T01:02:02.530Z,21.12
2022-08-17T01:04:32.328Z,21.07
2022-08-17T01:07:04.540Z,21.07
2022-08-17T01:09:33.840Z,21.10
2022-08-17T01:12:02.014Z,21.09
2022-08-17T01:14:30.050Z,21.10
2022-08-17T01:16:58.265Z,21.07
2022-08-17T01:19:29.603Z,21.07
2022-08-17T01:22:07.701Z,21.07
2022-08-17T01:24:39.227Z,21.07
2022-08-17T01:27:10.668Z,21.05
2022-08-17T01:29:44.301Z,21.00
2022-08-17T01:32:13.011Z,20.96
2022-08-17T01:34:42.551Z,20.94
2022-08-17T01:37:13.181Z,20.95
2022-08-17T01:39:49.123Z,20.89
2022-08-17T01:42:24.614Z,20.87
2022-08-17T01:44:58.999Z,20.89
2022-08-17T01:47:27.303Z,20.87
2022-08-17T01:49:57.851Z,20.87
2022-08-17T01:52:25.897Z,20.94
2022-08-17T01:54:55.849Z,20.89
2022-08-17T01:57:23.864Z,20.86
2022-08-17T01:59:52.075Z,20.88
2022-08-17T02:02:31.340Z,20.88
2022-08-17T02:05:00.019Z,20.85
2022-08-17T02:07:28.698Z,20.83
2022-08-17T02:09:58.395Z,20.82
2022-08-17T02:12:38.278Z,20.78
2022-08-17T02:15:12.403Z,20.70
2022-08-17T02:17:41.467Z,20.65
2022-08-17T02:20:11.515Z,20.69
2022-08-17T02:22:43.647Z,20.67
2022-08-17T02:25:17.512Z,20.67
2022-08-17T02:27:45.702Z,20.67
2022-08-17T02:30:59.850Z,20.69
2022-08-17T02:33:06.401Z,20.63
2022-08-17T02:35:38.243Z,20.69
2022-08-17T02:38:07.305Z,20.75
2022-08-17T02:40:40.596Z,20.78
2022-08-17T02:43:09.901Z,20.76
2022-08-17T02:45:38.102Z,20.72
2022-08-17T02:48:06.442Z,20.77
2022-08-17T02:50:34.501Z,20.68
2022-08-17T02:53:02.926Z,20.61
2022-08-17T02:55:40.117Z,20.66
2022-08-17T02:58:08.301Z,20.61
2022-08-17T03:00:42.284Z,20.65
2022-08-17T03:03:13.563Z,20.69
2022-08-17T03:05:41.774Z,20.72
2022-08-17T03:08:10.459Z,20.74
2022-08-17T03:10:43.622Z,20.70
2022-08-17T03:13:12.631Z,20.75
2022-08-17T03:15:41.577Z,20.78
2022-08-17T03:18:21.966Z,20.74
2022-08-17T03:20:55.244Z,20.74
2022-08-17T03:23:25.282Z,20.79
2022-08-17T03:25:56.037Z,20.73
2022-08-17T03:28:26.065Z,20.71
2022-08-17T03:30:54.320Z,20.67
2022-08-17T03:33:22.953Z,20.72
2022-08-17T03:35:51.644Z,20.69
2022-08-17T03:38:20.291Z,20.72
2022-08-17T03:40:58.796Z,20.78
2022-08-17T03:43:34.445Z,20.72
2022-08-17T03:46:28.423Z,20.69
2022-08-17T03:49:22.065Z,20.67
2022-08-17T03:52:07.954Z,20.68
2022-08-17T03:54:53.541Z,20.75
2022-08-17T03:57:21.793Z,20.66
2022-08-17T03:59:51.679Z,20.70
2022-08-17T04:02:29.057Z,20.73
2022-08-17T04:04:57.951Z,20.78
2022-08-17T04:07:29.587Z,20.68
2022-08-17T04:09:59.295Z,20.73
2022-08-17T04:12:30.721Z,20.79
2022-08-17T04:15:00.713Z,20.70
2022-08-17T04:17:30.246Z,20.73
2022-08-17T04:19:58.373Z,20.70
2022-08-17T04:22:32.572Z,20.70
2022-08-17T04:25:10.125Z,20.77
2022-08-17T04:27:38.181Z,20.78
2022-08-17T04:30:09.624Z,20.77
2022-08-17T04:33:10.646Z,20.70
2022-08-17T04:35:41.717Z,20.70
2022-08-17T04:38:13.535Z,20.77
2022-08-17T04:40:59.771Z,20.79
2022-08-17T04:43:29.595Z,20.89
2022-08-17T04:46:02.592Z,20.85
2022-08-17T04:48:36.159Z,21.02
2022-08-17T04:51:09.549Z,20.99
2022-08-17T04:53:39.499Z,21.00
2022-08-17T04:56:16.116Z,20.99
2022-08-17T04:58:46.210Z,20.98
2022-08-17T05:01:16.485Z,21.00
2022-08-17T05:03:52.113Z,20.98
2022-08-17T05:06:20.427Z,21.06
2022-08-17T05:08:48.522Z,21.07
2022-08-17T05:11:16.707Z,21.12
2022-08-17T05:13:44.988Z,21.20
2022-08-17T05:16:13.229Z,21.26
2022-08-17T05:18:42.635Z,21.29
2022-08-17T05:21:10.662Z,21.39
2022-08-17T05:23:42.609Z,21.43
2022-08-17T05:26:21.947Z,21.42
2022-08-17T05:29:00.558Z,21.48
2022-08-17T05:31:31.933Z,21.55
2022-08-17T05:34:01.493Z,21.58
2022-08-17T05:36:42.153Z,21.71
2022-08-17T05:39:16.333Z,21.76
2022-08-17T05:41:47.750Z,21.82
2022-08-17T05:44:16.319Z,21.83
2022-08-17T05:46:51.062Z,21.88
2022-08-17T05:49:29.472Z,21.89
2022-08-17T05:52:18.766Z,21.91
2022-08-17T05:55:05.912Z,21.99
2022-08-17T05:57:47.516Z,22.06
2022-08-17T06:00:30.568Z,22.08
2022-08-17T06:03:23.401Z,22.14
2022-08-17T06:06:09.766Z,22.18
2022-08-17T06:08:51.715Z,22.26
2022-08-17T06:11:29.501Z,22.31
2022-08-17T06:14:22.430Z,22.34
2022-08-17T06:16:56.891Z,22.37
2022-08-17T06:19:34.335Z,22.44
2022-08-17T06:22:06.632Z,22.47
2022-08-17T06:24:40.024Z,22.53
2022-08-17T06:27:19.755Z,22.56
2022-08-17T06:29:56.763Z,22.62
2022-08-17T06:32:26.549Z,22.68
2022-08-17T06:34:55.276Z,22.72
2022-08-17T06:37:54.799Z,22.77
2022-08-17T06:40:53.011Z,22.81
2022-08-17T06:43:40.203Z,22.91
2022-08-17T06:46:13.906Z,23.03
2022-08-17T06:48:47.721Z,23.14
2022-08-17T06:51:25.856Z,23.25
2022-08-17T06:54:05.794Z,23.33
2022-08-17T06:56:53.808Z,23.38
2022-08-17T06:59:47.190Z,23.43
2022-08-17T07:02:52.001Z,23.53
2022-08-17T07:05:25.018Z,23.57
2022-08-17T07:08:03.697Z,23.60
2022-08-17T07:10:44.172Z,23.68
2022-08-17T07:13:29.404Z,23.76
2022-08-17T07:16:14.638Z,23.85
2022-08-17T07:18:43.699Z,23.90
2022-08-17T07:21:27.365Z,24.02
2022-08-17T07:24:29.632Z,24.01
2022-08-17T07:27:11.003Z,24.08
2022-08-17T07:29:44.454Z,24.14
2022-08-17T07:32:18.247Z,24.16
2022-08-17T07:35:15.264Z,24.26
2022-08-17T07:37:53.142Z,24.36
2022-08-17T07:40:33.443Z,24.43
2022-08-17T07:43:22.206Z,24.50
2022-08-17T07:46:32.568Z,24.59
2022-08-17T07:49:21.914Z,24.66
2022-08-17T07:52:48.517Z,24.80
2022-08-17T07:54:49.723Z,24.93
2022-08-17T07:57:36.656Z,25.01
2022-08-17T08:00:29.197Z,25.06
2022-08-17T08:03:21.620Z,25.21
2022-08-17T08:05:57.326Z,25.27
2022-08-17T08:08:38.466Z,25.34
2022-08-17T08:11:11.507Z,25.41
2022-08-17T08:13:43.927Z,25.47
2022-08-17T08:16:30.141Z,25.55
2022-08-17T08:19:01.651Z,25.65
2022-08-17T08:21:44.500Z,25.66
2022-08-17T08:24:33.830Z,25.67
2022-08-17T08:27:20.355Z,25.69
2022-08-17T08:29:58.021Z,25.72
2022-08-17T08:32:50.311Z,25.70
2022-08-17T08:35:29.531Z,25.68
2022-08-17T08:38:12.111Z,25.62
2022-08-17T08:40:57.234Z,25.62
2022-08-17T08:43:38.033Z,25.59
2022-08-17T08:46:19.698Z,25.56
2022-08-17T08:50:02.195Z,25.51
2022-08-17T08:52:45.414Z,25.48
2022-08-17T08:55:20.735Z,25.47
2022-08-17T08:57:57.858Z,25.47
2022-08-17T09:00:27.742Z,25.38
2022-08-17T09:03:53.037Z,25.34
2022-08-17T09:06:43.375Z,25.30
2022-08-17T09:09:26.900Z,25.31
2022-08-17T09:12:06.423Z,25.30
2022-08-17T09:14:45.021Z,25.30
2022-08-17T09:17:19.856Z,25.33
2022-08-17T09:19:55.945Z,25.34
2022-08-17T09:22:35.832Z,25.35
2022-08-17T09:25:10.002Z,25.40
2022-08-17T09:27:53.137Z,25.37
2022-08-17T09:30:23.656Z,25.34
2022-08-17T09:32:57.580Z,25.35
2022-08-17T09:35:37.054Z,25.30
2022-08-17T09:38:22.164Z,25.27
2022-08-17T09:40:58.081Z,25.24
2022-08-17T09:43:39.319Z,25.20
2022-08-17T09:46:16.849Z,25.16
2022-08-17T09:48:51.624Z,25.09
2022-08-17T09:51:30.525Z,25.02
2022-08-17T09:54:21.049Z,24.94
2022-08-17T09:57:25.873Z,24.87
2022-08-17T10:00:07.746Z,24.79
2022-08-17T10:03:21.922Z,24.70
2022-08-17T10:05:57.479Z,24.65
2022-08-17T10:08:40.194Z,24.66
2022-08-17T10:11:33.462Z,24.64
2022-08-17T10:14:36.720Z,24.65
2022-08-17T10:17:11.100Z,24.65
2022-08-17T10:19:46.308Z,24.65
2022-08-17T10:22:44.633Z,24.65
2022-08-17T10:25:53.649Z,24.61
2022-08-17T10:28:30.399Z,24.58
2022-08-17T10:31:33.766Z,24.59
2022-08-17T10:34:22.721Z,24.55
2022-08-17T10:36:59.390Z,24.53
2022-08-17T10:39:35.838Z,24.47
2022-08-17T10:42:32.435Z,24.52
2022-08-17T10:45:07.641Z,24.42
2022-08-17T10:48:06.150Z,24.32
2022-08-17T10:50:59.672Z,24.26
2022-08-17T10:54:04.839Z,24.12
2022-08-17T10:56:50.966Z,24.14
2022-08-17T10:59:50.860Z,24.07
2022-08-17T11:02:31.454Z,24.06
2022-08-17T11:05:32.330Z,23.94
2022-08-17T11:08:27.592Z,23.94
2022-08-17T11:11:14.861Z,23.79
2022-08-17T11:13:53.013Z,23.72
2022-08-17T11:16:48.102Z,23.72
2022-08-17T11:19:50.013Z,23.71
2022-08-17T11:23:07.519Z,23.65
2022-08-17T11:25:39.685Z,23.65
2022-08-17T11:28:19.938Z,23.64
2022-08-17T11:30:53.213Z,23.68
2022-08-17T11:33:58.081Z,23.67
2022-08-17T11:37:31.564Z,23.73
2022-08-17T11:40:38.580Z,23.74
2022-08-17T11:43:33.476Z,23.83
2022-08-17T11:46:18.662Z,23.92
2022-08-17T11:49:27.691Z,23.96
2022-08-17T11:52:39.357Z,23.92
2022-08-17T11:55:33.883Z,23.96
2022-08-17T11:58:03.929Z,24.00
2022-08-17T12:00:57.356Z,24.00
2022-08-17T12:03:54.321Z,24.05
2022-08-17T12:06:35.727Z,24.12
2022-08-17T12:09:14.681Z,24.19
2022-08-17T12:12:11.109Z,24.25
2022-08-17T12:15:08.499Z,24.27
2022-08-17T12:17:41.550Z,24.41
2022-08-17T12:20:17.152Z,24.43
2022-08-17T12:22:57.485Z,24.40
2022-08-17T12:25:35.698Z,24.46
2022-08-17T12:28:07.569Z,24.47
2022-08-17T12:30:37.324Z,24.49
2022-08-17T12:33:13.684Z,24.49
2022-08-17T12:35:59.946Z,24.53
2022-08-17T12:38:32.823Z,24.47
2022-08-17T12:41:26.273Z,24.47
2022-08-17T12:44:01.509Z,24.47
2022-08-17T12:46:33.469Z,24.47
2022-08-17T12:49:25.147Z,24.52
2022-08-17T12:52:07.966Z,24.51
2022-08-17T12:54:50.409Z,24.49
2022-08-17T12:57:24.425Z,24.51
2022-08-17T12:59:59.599Z,24.55
2022-08-17T13:02:45.066Z,24.57
2022-08-17T13:05:23.849Z,24.66
2022-08-17T13:07:54.467Z,24.77
2022-08-17T13:10:32.434Z,24.95
2022-08-17T13:13:05.799Z,24.97
2022-08-17T13:15:44.506Z,25.04
2022-08-17T13:18:38.901Z,25.16
2022-08-17T13:21:12.471Z,25.30
2022-08-17T13:23:48.822Z,25.43
2022-08-17T13:26:32.732Z,25.63
2022-08-17T13:29:06.227Z,25.74
2022-08-17T13:31:50.416Z,25.93
2022-08-17T13:34:38.120Z,25.96
2022-08-17T13:37:33.433Z,26.03
2022-08-17T13:40:36.506Z,26.09
2022-08-17T13:43:05.415Z,26.17
2022-08-17T13:45:52.211Z,26.25
2022-08-17T13:48:26.176Z,26.30
2022-08-17T13:51:26.281Z,26.39
2022-08-17T13:54:28.991Z,26.46
2022-08-17T13:57:02.272Z,26.44
2022-08-17T13:59:54.884Z,26.47
2022-08-17T14:02:25.948Z,26.49
2022-08-17T14:04:57.855Z,26.55
2022-08-17T14:07:34.593Z,26.58
2022-08-17T14:10:10.196Z,26.56
2022-08-17T14:12:43.406Z,26.61
2022-08-17T14:15:14.025Z,26.63
2022-08-17T14:17:42.280Z,26.66
2022-08-17T14:20:13.486Z,26.74
2022-08-17T14:22:47.135Z,26.84
2022-08-17T14:25:18.650Z,26.96
2022-08-17T14:27:53.375Z,27.00
2022-08-17T14:30:24.971Z,27.08
2022-08-17T14:32:54.197Z,27.03
2022-08-17T14:35:24.841Z,27.01
2022-08-17T14:37:53.688Z,26.99
2022-08-17T14:40:24.654Z,27.03
2022-08-17T14:42:56.668Z,27.05
2022-08-17T14:45:31.662Z,27.12
2022-08-17T14:48:05.544Z,27.12
2022-08-17T14:50:35.478Z,27.10
2022-08-17T14:53:05.608Z,27.06
2022-08-17T14:55:34.549Z,27.05
2022-08-17T14:58:04.897Z,27.06
2022-08-17T15:00:33.561Z,27.15
2022-08-17T15:03:03.386Z,27.08
2022-08-17T15:05:34.783Z,27.04
2022-08-17T15:08:04.579Z,27.03
2022-08-17T15:10:33.870Z,27.01
2022-08-17T15:13:03.457Z,26.98
2022-08-17T15:15:31.905Z,26.97
2022-08-17T15:18:01.110Z,26.90
2022-08-17T15:20:30.831Z,26.87
2022-08-17T15:22:59.590Z,26.83
2022-08-17T15:25:32.922Z,26.84
2022-08-17T15:28:03.064Z,26.86
2022-08-17T15:30:32.095Z,26.85
2022-08-17T15:33:04.065Z,26.86
2022-08-17T15:35:34.719Z,26.83
2022-08-17T15:38:11.630Z,26.81
2022-08-17T15:40:44.898Z,26.76
2022-08-17T15:43:17.376Z,26.73
2022-08-17T15:45:52.502Z,26.71
2022-08-17T15:48:40.607Z,26.70
2022-08-17T15:51:11.615Z,26.67
2022-08-17T15:53:41.195Z,26.69
2022-08-17T15:56:09.588Z,26.70
2022-08-17T15:58:40.085Z,26.74
2022-08-17T16:01:16.490Z,26.74
2022-08-17T16:04:04.655Z,26.71
2022-08-17T16:06:36.169Z,26.65
2022-08-17T16:09:04.761Z,26.69
2022-08-17T16:11:32.817Z,26.68
2022-08-17T16:14:02.214Z,26.70
2022-08-17T16:16:31.240Z,26.68
2022-08-17T16:18:59.449Z,26.66
2022-08-17T16:21:29.583Z,26.63
2022-08-17T16:24:02.263Z,26.63
2022-08-17T16:26:32.537Z,26.63
2022-08-17T16:29:06.131Z,26.63
2022-08-17T16:31:35.927Z,26.58
2022-08-17T16:34:17.305Z,26.55
2022-08-17T16:36:53.723Z,26.53
2022-08-17T16:39:25.180Z,26.50
2022-08-17T16:41:53.196Z,26.52
2022-08-17T16:44:23.108Z,26.52
2022-08-17T16:46:51.425Z,26.52
2022-08-17T16:49:32.436Z,26.49
2022-08-17T16:52:09.706Z,26.49
2022-08-17T16:54:40.569Z,26.45
2022-08-17T16:57:08.707Z,26.41
2022-08-17T16:59:41.997Z,26.40
2022-08-17T17:02:15.154Z,26.41
2022-08-17T17:04:52.591Z,26.38
2022-08-17T17:07:49.573Z,26.31
2022-08-17T17:10:22.226Z,26.32
2022-08-17T17:13:01.689Z,26.29
2022-08-17T17:15:54.989Z,26.22
2022-08-17T17:18:40.113Z,26.22
2022-08-17T17:21:15.162Z,26.20
2022-08-17T17:23:55.974Z,26.16
2022-08-17T17:26:55.188Z,26.10
2022-08-17T17:29:47.769Z,26.06
2022-08-17T17:32:22.797Z,26.05
2022-08-17T17:34:58.706Z,26.04
2022-08-17T17:37:33.336Z,26.02
2022-08-17T17:40:07.576Z,25.99
2022-08-17T17:42:36.512Z,25.96
2022-08-17T17:45:13.044Z,25.97
2022-08-17T17:47:42.723Z,25.94
2022-08-17T17:50:11.578Z,25.91
2022-08-17T17:52:55.773Z,25.90
2022-08-17T17:55:44.011Z,25.86
2022-08-17T17:58:34.176Z,25.82
2022-08-17T18:01:26.300Z,25.75
2022-08-17T18:04:18.919Z,25.72
2022-08-17T18:07:20.545Z,25.68
2022-08-17T18:10:04.861Z,25.67
2022-08-17T18:12:59.168Z,25.65
2022-08-17T18:15:33.972Z,25.59
2022-08-17T18:18:28.745Z,25.58
2022-08-17T18:21:06.403Z,25.50
2022-08-17T18:23:35.192Z,25.48
2022-08-17T18:26:03.288Z,25.44
2022-08-17T18:28:38.915Z,25.47
2022-08-17T18:31:16.407Z,25.40
2022-08-17T18:33:47.234Z,25.37
2022-08-17T18:36:29.773Z,25.34
2022-08-17T18:39:15.146Z,25.27
2022-08-17T18:41:45.789Z,25.28
2022-08-17T18:44:26.363Z,25.25
2022-08-17T18:47:13.212Z,25.24
2022-08-17T18:49:44.195Z,25.12
2022-08-17T18:52:23.515Z,25.09
2022-08-17T18:55:05.612Z,25.05
2022-08-17T18:57:37.811Z,25.02
2022-08-17T19:00:15.191Z,25.01
2022-08-17T19:02:53.899Z,24.99
2022-08-17T19:05:35.446Z,24.95
2022-08-17T19:08:24.334Z,24.89
2022-08-17T19:10:56.560Z,24.89
2022-08-17T19:13:31.934Z,24.87
2022-08-17T19:16:14.360Z,24.88
2022-08-17T19:18:49.268Z,24.84
2022-08-17T19:21:23.661Z,24.82
2022-08-17T19:24:01.482Z,24.77
2022-08-17T19:26:54.895Z,24.73
2022-08-17T19:29:34.401Z,24.70
2022-08-17T19:32:03.415Z,24.68
2022-08-17T19:34:35.382Z,24.66
2022-08-17T19:37:12.376Z,24.64
2022-08-17T19:39:56.088Z,24.61
2022-08-17T19:42:37.124Z,24.60
2022-08-17T19:45:16.085Z,24.57
2022-08-17T19:47:56.008Z,24.49
2022-08-17T19:50:38.224Z,24.49
2022-08-17T19:53:20.428Z,24.48
2022-08-17T19:56:01.222Z,24.44
2022-08-17T19:58:48.183Z,24.41
2022-08-17T20:01:29.916Z,24.44
2022-08-17T20:04:13.409Z,24.38
2022-08-17T20:06:49.165Z,24.38
2022-08-17T20:09:33.755Z,24.40
2022-08-17T20:12:10.031Z,24.34
2022-08-17T20:14:53.463Z,24.32
2022-08-17T20:17:28.607Z,24.31
2022-08-17T20:20:07.459Z,24.28
2022-08-17T20:22:55.239Z,24.24
2022-08-17T20:25:34.702Z,24.26
2022-08-17T20:28:16.302Z,24.21
2022-08-17T20:30:45.198Z,24.17
2022-08-17T20:33:27.277Z,24.13
2022-08-17T20:36:18.702Z,24.10
2022-08-17T20:38:50.298Z,24.10
2022-08-17T20:41:22.344Z,24.10
2022-08-17T20:44:05.493Z,24.10
2022-08-17T20:46:57.415Z,24.07
2022-08-17T20:49:33.046Z,24.03
2022-08-17T20:52:08.637Z,24.05
2022-08-17T20:54:48.808Z,24.03
2022-08-17T20:57:49.050Z,23.98
2022-08-17T21:00:46.249Z,23.97
2022-08-17T21:03:52.570Z,23.92
2022-08-17T21:06:25.961Z,23.95
2022-08-17T21:08:59.077Z,23.98
2022-08-17T21:12:04.083Z,23.99
2022-08-17T21:14:54.142Z,23.95
2022-08-17T21:17:41.805Z,23.97
2022-08-17T21:20:36.761Z,24.01
2022-08-17T21:23:23.379Z,24.03
2022-08-17T21:26:13.242Z,24.05
2022-08-17T21:29:01.702Z,24.09
2022-08-17T21:32:10.794Z,24.07
2022-08-17T21:34:43.380Z,24.07
2022-08-17T21:37:34.773Z,24.09
2022-08-17T21:40:24.273Z,24.07
2022-08-17T21:42:56.047Z,24.10
2022-08-17T21:45:29.862Z,24.12
2022-08-17T21:48:18.129Z,24.12
2022-08-17T21:51:03.960Z,24.12
2022-08-17T21:53:41.334Z,24.16
2022-08-17T21:56:12.560Z,24.19
2022-08-17T21:58:48.475Z,24.14
2022-08-17T22:01:24.895Z,24.08
2022-08-17T22:04:03.312Z,24.09
2022-08-17T22:06:38.573Z,24.03
2022-08-17T22:09:18.202Z,24.03
2022-08-17T22:12:05.462Z,24.00
2022-08-17T22:14:52.648Z,23.99
2022-08-17T22:17:25.718Z,24.03
2022-08-17T22:19:57.633Z,23.98
2022-08-17T22:22:34.541Z,23.85
2022-08-17T22:25:06.815Z,23.76
2022-08-17T22:28:03.173Z,23.71
2022-08-17T22:30:38.040Z,23.74
2022-08-17T22:33:37.081Z,23.52
2022-08-17T22:36:25.335Z,23.41
2022-08-17T22:38:57.741Z,23.48
2022-08-17T22:41:40.516Z,23.42
2022-08-17T22:44:17.160Z,23.20
2022-08-17T22:47:11.270Z,23.07
2022-08-17T22:49:54.008Z,23.02
2022-08-17T22:52:35.419Z,22.99
2022-08-17T22:55:32.765Z,22.93
2022-08-17T22:58:19.298Z,23.05
2022-08-17T23:00:49.999Z,23.07
2022-08-17T23:03:20.928Z,23.06
2022-08-17T23:06:03.640Z,23.11
2022-08-17T23:08:34.075Z,23.08
2022-08-17T23:11:03.682Z,23.04
2022-08-17T23:13:33.310Z,23.02
2022-08-17T23:16:02.339Z,23.03
2022-08-17T23:18:30.428Z,23.03
2022-08-17T23:20:58.541Z,23.02
2022-08-17T23:23:26.861Z,23.02
2022-08-17T23:25:55.398Z,22.94
2022-08-17T23:28:24.795Z,22.94
2022-08-17T23:30:52.948Z,22.89
2022-08-17T23:33:27.569Z,22.90
2022-08-17T23:35:55.711Z,22.91
2022-08-17T23:38:25.319Z,22.85
2022-08-17T23:40:53.926Z,22.81
2022-08-17T23:43:25.284Z,22.85
2022-08-17T23:45:57.351Z,22.89
2022-08-17T23:48:34.961Z,22.89
2022-08-17T23:51:12.634Z,22.87
2022-08-17T23:53:46.116Z,22.82
2022-08-17T23:56:15.097Z,22.79
2022-08-17T23:58:46.306Z,22.83
